Keegan Foss — WCW5595 — position and weather

sailwx.info

Track history (hours):
 
Tides and Currents Weather Stations Pressure Air Temp Water Temp Dewpoint Dewpoint Depression Visibility Wind Speed Wind Dir Waves Ship Positions

Keegan Foss

Owner: FOSS MARITIME CO, SEATTLE, WA. More information available from US FCC via Universal Licensing System and Coast Guard Vessel Documentation Center.

Last reported at 2018-Feb-20 03:31 UTC. Time now 2018-Feb-20 03:45 UTC.
Position N 37°54' W 122°22'.

Length 31 m; draft 3.6 m.

Type: Tug. MMSI: 366979330.

Date/timePositionNaut miles runAvg speedWind from/ knotsBaromVisibWave heightAir tempDewpointWater temp
2018-Feb-20 03:31N 37°54' W 122°22'0 0.1
2018-Feb-20 03:01N 37°54' W 122°22'1 1.6
2018-Feb-20 02:30N 37°55' W 122°22'1 1.6
2018-Feb-20 01:58N 37°54' W 122°22'0 0.1
2018-Feb-20 01:28N 37°54' W 122°22'0 0.0
2018-Feb-20 00:58N 37°54' W 122°22'0 0.0
2018-Feb-20 00:28N 37°54' W 122°22'1 1.1
2018-Feb-20 00:00N 37°54' W 122°23'1 3.0
2018-Feb-19 23:30N 37°55' W 122°24'0 0.2
2018-Feb-19 22:58N 37°55' W 122°25'0 0.0
2018-Feb-19 22:28N 37°55' W 122°25'0 0.0
2018-Feb-19 21:58N 37°55' W 122°25'0 0.0
2018-Feb-19 21:22N 37°55' W 122°25'0 0.0
2018-Feb-19 20:58N 37°55' W 122°25'0 0.0
2018-Feb-19 20:28N 37°55' W 122°25'0 0.0
2018-Feb-19 19:58N 37°55' W 122°25'0 0.0
2018-Feb-19 19:28N 37°55' W 122°25'0 0.0
2018-Feb-19 18:58N 37°55' W 122°25'0 0.0
2018-Feb-19 18:28N 37°55' W 122°25'0 0.0
2018-Feb-19 17:58N 37°55' W 122°25'0 0.0
2018-Feb-19 17:28N 37°55' W 122°25'0 0.0
2018-Feb-19 16:58N 37°55' W 122°25'0 0.0
2018-Feb-19 16:28N 37°55' W 122°25'0 0.0
2018-Feb-19 15:58N 37°55' W 122°25'0 0.0
2018-Feb-19 15:28N 37°55' W 122°25'0 0.0
2018-Feb-19 14:58N 37°55' W 122°25'0 0.0
2018-Feb-19 14:28N 37°55' W 122°25'0 0.0
2018-Feb-19 13:58N 37°55' W 122°25'0 0.0
2018-Feb-19 13:28N 37°55' W 122°25'0 0.0
2018-Feb-19 13:01N 37°55' W 122°25'0 0.7
2018-Feb-19 12:28N 37°56' W 122°25'0 0.2
2018-Feb-19 11:55N 37°55' W 122°25'2 4.4
2018-Feb-19 11:30N 37°54' W 122°25'3 6.3
2018-Feb-19 11:01N 37°51' W 122°25'3 5.1
2018-Feb-19 10:30N 37°49' W 122°28'4 8.1
2018-Feb-19 10:00N 37°53' W 122°26'3 5.5
2018-Feb-19 09:30N 37°55' W 122°25'0 0.0
2018-Feb-19 09:00N 37°55' W 122°25'0 0.0
2018-Feb-19 08:30N 37°55' W 122°25'0 0.0
2018-Feb-19 08:00N 37°55' W 122°25'2 3.8
2018-Feb-19 07:28N 37°54' W 122°22'0 0.0
2018-Feb-19 06:58N 37°54' W 122°22'0 0.0
2018-Feb-19 06:28N 37°54' W 122°22'0 0.0
2018-Feb-19 05:58N 37°54' W 122°22'0 0.0
2018-Feb-19 05:28N 37°54' W 122°22'0 0.0
2018-Feb-19 04:58N 37°54' W 122°22'0 0.0
2018-Feb-19 04:28N 37°54' W 122°22'0 0.0
2018-Feb-19 03:55N 37°54' W 122°22'0 0.0
2018-Feb-19 03:28N 37°54' W 122°22'0 0.0
2018-Feb-19 02:55N 37°54' W 122°22'0 0.0
2018-Feb-19 02:28N 37°54' W 122°22'0 0.0
2018-Feb-19 01:58N 37°54' W 122°22'0 0.0
2018-Feb-19 01:28N 37°54' W 122°22'0 0.0
2018-Feb-19 00:58N 37°54' W 122°22'0 0.0
2018-Feb-19 00:28N 37°54' W 122°22'0 0.0
2018-Feb-18 23:58N 37°54' W 122°22'0 0.0
2018-Feb-18 23:28N 37°54' W 122°22'0 0.0
2018-Feb-18 22:58N 37°54' W 122°22'0 0.0
2018-Feb-18 22:28N 37°54' W 122°22'0 0.0
2018-Feb-18 21:55N 37°54' W 122°22'0 0.0
2018-Feb-18 21:28N 37°54' W 122°22'0 0.0
2018-Feb-18 20:58N 37°54' W 122°22'0 0.0
2018-Feb-18 20:22N 37°54' W 122°22'0 0.0
2018-Feb-18 19:55N 37°54' W 122°22'0 0.0
2018-Feb-18 19:28N 37°54' W 122°22'0 0.0
2018-Feb-18 18:58N 37°54' W 122°22'0 0.0
2018-Feb-18 18:28N 37°54' W 122°22'0 0.0
2018-Feb-18 17:58N 37°54' W 122°22'0 0.0
2018-Feb-18 17:28N 37°54' W 122°22'0 0.0
2018-Feb-18 16:58N 37°54' W 122°22'0 0.0
2018-Feb-18 16:28N 37°54' W 122°22'0 0.0
2018-Feb-18 15:55N 37°54' W 122°22'0 0.0
2018-Feb-18 15:28N 37°54' W 122°22'0 0.0
2018-Feb-18 14:58N 37°54' W 122°22'0 0.0
2018-Feb-18 14:28N 37°54' W 122°22'0 0.0
2018-Feb-18 13:58N 37°54' W 122°22'0 0.0
2018-Feb-18 13:28N 37°54' W 122°22'0 0.0
2018-Feb-18 12:58N 37°54' W 122°22'0 0.0
2018-Feb-18 12:28N 37°54' W 122°22'0 0.0
2018-Feb-18 11:58N 37°54' W 122°22'0 0.0
2018-Feb-18 11:28N 37°54' W 122°22'0 0.0
2018-Feb-18 10:58N 37°54' W 122°22'0 0.0
2018-Feb-18 10:28N 37°54' W 122°22'0 0.0
2018-Feb-18 09:58N 37°54' W 122°22'0 0.0
2018-Feb-18 09:28N 37°54' W 122°22'0 0.0
2018-Feb-18 08:58N 37°54' W 122°22'0 0.0
2018-Feb-18 08:28N 37°54' W 122°22'0 0.0
2018-Feb-18 07:58N 37°54' W 122°22'0 0.0
2018-Feb-18 07:28N 37°54' W 122°22'0 0.0
2018-Feb-18 06:58N 37°54' W 122°22'0 0.0
2018-Feb-18 06:28N 37°54' W 122°22'0 0.0
2018-Feb-18 05:58N 37°54' W 122°22'0 0.0
2018-Feb-18 05:28N 37°54' W 122°22'0 0.0
2018-Feb-18 04:58N 37°54' W 122°22'0 0.0
2018-Feb-18 04:28N 37°54' W 122°22'0 0.0
2018-Feb-18 03:58N 37°54' W 122°22'0 0.0
2018-Feb-18 03:28N 37°54' W 122°22'0 0.0
2018-Feb-18 02:58N 37°54' W 122°22'0 0.0
2018-Feb-18 02:28N 37°54' W 122°22'0 0.0
2018-Feb-18 01:58N 37°54' W 122°22'0 0.0
2018-Feb-18 01:28N 37°54' W 122°22'0 0.0
2018-Feb-18 00:55N 37°54' W 122°22'0 0.0
2018-Feb-18 00:28N 37°54' W 122°22'0 0.0
2018-Feb-17 23:58N 37°54' W 122°22'0 0.0
2018-Feb-17 23:28N 37°54' W 122°22'0 0.0
2018-Feb-17 22:58N 37°54' W 122°22'0 0.0
2018-Feb-17 22:28N 37°54' W 122°22'0 0.0
2018-Feb-17 21:58N 37°54' W 122°22'0 0.0
2018-Feb-17 21:28N 37°54' W 122°22'0 0.0
2018-Feb-17 20:58N 37°54' W 122°22'0 0.0
2018-Feb-17 20:28N 37°54' W 122°22'0 0.0
2018-Feb-17 19:58N 37°54' W 122°22'1 2.8
2018-Feb-17 19:30N 37°54' W 122°24'1 1.9
2018-Feb-17 18:59N 37°55' W 122°25'0 0.0
2018-Feb-17 18:30N 37°55' W 122°25'0 0.0
2018-Feb-17 17:56N 37°55' W 122°25'0 0.0
2018-Feb-17 17:29N 37°55' W 122°25'0 0.0
2018-Feb-17 16:56N 37°55' W 122°25'0 0.0
2018-Feb-17 16:29N 37°55' W 122°25'0 0.0
2018-Feb-17 15:59N 37°55' W 122°25'0 0.0
2018-Feb-17 15:29N 37°55' W 122°25'0 0.0
2018-Feb-17 14:57N 37°55' W 122°25'0 0.0
2018-Feb-17 14:29N 37°55' W 122°25'0 0.0
2018-Feb-17 13:59N 37°55' W 122°25'0 0.0
2018-Feb-17 13:29N 37°55' W 122°25'0 0.0
2018-Feb-17 12:59N 37°55' W 122°25'0 0.0
2018-Feb-17 12:29N 37°55' W 122°25'0 0.0
2018-Feb-17 11:59N 37°55' W 122°25'0 0.0
2018-Feb-17 11:29N 37°55' W 122°25'1 1.2
2018-Feb-17 11:00N 37°55' W 122°25'0 0.8
2018-Feb-17 10:31N 37°55' W 122°25'1 1.2
2018-Feb-17 09:58N 37°56' W 122°25'2 3.7
2018-Feb-17 09:30N 37°54' W 122°23'1 1.6
2018-Feb-17 08:59N 37°54' W 122°22'0 0.0
2018-Feb-17 08:29N 37°54' W 122°22'0 0.0
2018-Feb-17 07:59N 37°54' W 122°22'0 0.0
2018-Feb-17 07:29N 37°54' W 122°22'0 0.0
2018-Feb-17 06:59N 37°54' W 122°22'0 0.0
2018-Feb-17 06:29N 37°54' W 122°22'0 0.0
2018-Feb-17 05:59N 37°54' W 122°22'0 0.0
2018-Feb-17 05:29N 37°54' W 122°22'2 4.0
2018-Feb-17 05:00N 37°55' W 122°24'0 0.2
2018-Feb-17 04:30N 37°55' W 122°25'0 0.0
2018-Feb-17 04:00N 37°55' W 122°25'2 3.6
2018-Feb-17 03:30N 37°54' W 122°25'2 3.7
2018-Feb-17 03:00N 37°52' W 122°25'4 7.2
2018-Feb-17 02:30N 37°55' W 122°25'0 0.2
2018-Feb-17 02:00N 37°55' W 122°25'0 0.3
2018-Feb-17 01:30N 37°55' W 122°25'0 0.0
2018-Feb-17 01:00N 37°55' W 122°25'0 0.0
2018-Feb-17 00:30N 37°55' W 122°25'0 0.0
2018-Feb-17 00:00N 37°55' W 122°25'1 1.8
2018-Feb-16 23:31N 37°54' W 122°24'2 3.4
2018-Feb-16 22:58N 37°55' W 122°22'1 2.0
2018-Feb-16 22:30N 37°54' W 122°22'0 0.3
2018-Feb-16 21:58N 37°54' W 122°22'0 0.1
2018-Feb-16 21:28N 37°54' W 122°22'0 0.0
2018-Feb-16 20:58N 37°54' W 122°22'0 0.0
2018-Feb-16 20:28N 37°54' W 122°22'0 0.0
2018-Feb-16 19:58N 37°54' W 122°22'0 0.0
2018-Feb-16 19:28N 37°54' W 122°22'0 0.0
2018-Feb-16 18:55N 37°54' W 122°22'0 0.0
2018-Feb-16 18:28N 37°54' W 122°22'0 0.0
2018-Feb-16 17:58N 37°54' W 122°22'0 0.0
2018-Feb-16 17:28N 37°54' W 122°22'0 0.0
2018-Feb-16 16:58N 37°54' W 122°22'0 0.0
2018-Feb-16 16:22N 37°54' W 122°22'0 0.0
2018-Feb-16 15:58N 37°54' W 122°22'0 0.0
2018-Feb-16 15:28N 37°54' W 122°22'0 0.0
2018-Feb-16 14:58N 37°54' W 122°22'0 0.0
2018-Feb-16 14:28N 37°54' W 122°22'0 0.0
2018-Feb-16 13:58N 37°54' W 122°22'0 0.0
2018-Feb-16 13:28N 37°54' W 122°22'0 0.0
2018-Feb-16 12:58N 37°54' W 122°22'0 0.0
2018-Feb-16 12:28N 37°54' W 122°22'0 0.0
2018-Feb-16 11:58N 37°54' W 122°22'0 0.0
2018-Feb-16 11:28N 37°54' W 122°22'0 0.0
2018-Feb-16 11:01N 37°54' W 122°22'1 1.4
2018-Feb-16 10:26N 37°55' W 122°22'1 2.1
2018-Feb-16 10:00N 37°54' W 122°22'0 0.4
2018-Feb-16 09:24N 37°54' W 122°22'2 5.6
2018-Feb-16 08:58N 37°56' W 122°25'0 0.0
2018-Feb-16 08:25N 37°56' W 122°25'0 1.1
2018-Feb-16 08:00N 37°55' W 122°25'4 7.5
2018-Feb-16 07:30N 37°52' W 122°25'4 7.3
2018-Feb-16 07:00N 37°49' W 122°28'4 8.0
2018-Feb-16 06:30N 37°53' W 122°26'3 5.0
2018-Feb-16 05:58N 37°55' W 122°25'0 0.8
2018-Feb-16 05:30N 37°56' W 122°25'0 0.4
2018-Feb-16 05:01N 37°56' W 122°25'1 1.1
2018-Feb-16 04:30N 37°55' W 122°25'0 0.1
2018-Feb-16 04:00N 37°55' W 122°25'0 0.0
2018-Feb-16 03:29N 37°55' W 122°25'0 0.0
2018-Feb-16 03:00N 37°55' W 122°25'0 0.0
2018-Feb-16 02:26N 37°55' W 122°25'0 0.0
2018-Feb-16 02:00N 37°55' W 122°25'0 0.0
2018-Feb-16 01:30N 37°55' W 122°25'0 0.0
2018-Feb-16 01:00N 37°55' W 122°25'0 0.0
2018-Feb-16 00:30N 37°55' W 122°25'0 0.0
2018-Feb-15 23:56N 37°55' W 122°25'0 0.0
2018-Feb-15 23:30N 37°55' W 122°25'2 4.0
2018-Feb-15 23:00N 37°54' W 122°22'0 0.0
2018-Feb-15 22:30N 37°54' W 122°22'0 0.0
2018-Feb-15 22:00N 37°54' W 122°22'0 0.0
2018-Feb-15 21:27N 37°54' W 122°22'0 0.0
2018-Feb-15 21:00N 37°54' W 122°22'0 0.0
2018-Feb-15 20:30N 37°54' W 122°22'0 0.0
2018-Feb-15 19:57N 37°54' W 122°22'0 0.0
2018-Feb-15 19:30N 37°54' W 122°22'0 0.0
2018-Feb-15 19:00N 37°54' W 122°22'0 0.0
2018-Feb-15 18:30N 37°54' W 122°22'0 0.0
2018-Feb-15 18:00N 37°54' W 122°22'0 0.0
2018-Feb-15 17:30N 37°54' W 122°22'0 0.0
2018-Feb-15 17:00N 37°54' W 122°22'0 0.0
2018-Feb-15 16:30N 37°54' W 122°22'0 0.0
2018-Feb-15 16:00N 37°54' W 122°22'0 0.0
2018-Feb-15 15:30N 37°54' W 122°22'0 0.0
2018-Feb-15 15:00N 37°54' W 122°22'0 0.0
2018-Feb-15 14:27N 37°54' W 122°22'0 0.0
2018-Feb-15 14:00N 37°54' W 122°22'0 0.0
2018-Feb-15 13:30N 37°54' W 122°22'0 0.0
2018-Feb-15 13:00N 37°54' W 122°22'0 0.0
2018-Feb-15 12:30N 37°54' W 122°22'0 0.0
2018-Feb-15 12:00N 37°54' W 122°22'0 0.0
2018-Feb-15 11:30N 37°54' W 122°22'0 0.0
2018-Feb-15 11:00N 37°54' W 122°22'0 0.0
2018-Feb-15 10:30N 37°54' W 122°22'0 0.0
2018-Feb-15 10:00N 37°54' W 122°22'0 0.0
2018-Feb-15 09:30N 37°54' W 122°22'0 0.0
2018-Feb-15 09:00N 37°54' W 122°22'1 2.6
2018-Feb-15 08:30N 37°54' W 122°24'1 1.8
2018-Feb-15 07:58N 37°55' W 122°25'0 0.0
2018-Feb-15 07:28N 37°55' W 122°25'0 0.0
2018-Feb-15 06:58N 37°55' W 122°25'0 0.0
2018-Feb-15 06:10N 37°55' W 122°25'0 0.0
2018-Feb-15 05:43N 37°55' W 122°25'0 0.0
2018-Feb-15 05:22N 37°55' W 122°25'0 0.0
2018-Feb-15 04:55N 37°55' W 122°25'0 0.0
2018-Feb-15 04:28N 37°55' W 122°25'0 0.0
2018-Feb-15 03:55N 37°55' W 122°25'0 0.0
2018-Feb-15 03:25N 37°55' W 122°25'0 0.0
2018-Feb-15 02:58N 37°55' W 122°25'0 0.0
2018-Feb-15 02:22N 37°55' W 122°25'0 0.0
2018-Feb-15 01:55N 37°55' W 122°25'0 0.0
2018-Feb-15 01:28N 37°55' W 122°25'0 0.0
2018-Feb-15 00:55N 37°55' W 122°25'0 0.0
2018-Feb-15 00:28N 37°55' W 122°25'0 0.0
2018-Feb-14 23:46N 37°55' W 122°25'0 0.0
2018-Feb-14 23:25N 37°55' W 122°25'0 0.0
2018-Feb-14 22:58N 37°55' W 122°25'0 0.0
2018-Feb-14 22:28N 37°55' W 122°25'0 0.0
2018-Feb-14 21:58N 37°55' W 122°25'0 0.1
2018-Feb-14 21:25N 37°55' W 122°24'0 0.1
2018-Feb-14 20:55N 37°55' W 122°25'0 0.0
2018-Feb-14 20:28N 37°55' W 122°25'0 0.0
2018-Feb-14 19:55N 37°55' W 122°25'0 0.0
2018-Feb-14 19:25N 37°55' W 122°25'0 0.0
2018-Feb-14 18:58N 37°55' W 122°25'0 0.0
2018-Feb-14 18:25N 37°55' W 122°25'0 0.0
2018-Feb-14 17:58N 37°55' W 122°25'0 0.0
2018-Feb-14 17:28N 37°55' W 122°25'0 0.0
2018-Feb-14 16:55N 37°55' W 122°25'0 0.0
2018-Feb-14 16:28N 37°55' W 122°25'0 0.0
2018-Feb-14 15:58N 37°55' W 122°25'0 0.0
2018-Feb-14 15:28N 37°55' W 122°25'0 0.0
2018-Feb-14 14:58N 37°55' W 122°25'0 0.0
2018-Feb-14 14:28N 37°55' W 122°25'0 0.0
2018-Feb-14 13:58N 37°55' W 122°25'0 0.0
2018-Feb-14 13:28N 37°55' W 122°25'0 0.0
2018-Feb-14 12:55N 37°55' W 122°25'0 0.0
2018-Feb-14 12:28N 37°55' W 122°25'0 0.0
2018-Feb-14 11:58N 37°55' W 122°25'0 0.0
2018-Feb-14 11:28N 37°55' W 122°25'0 0.0
2018-Feb-14 10:58N 37°55' W 122°25'0 0.0
2018-Feb-14 10:28N 37°55' W 122°25'1 2.2
2018-Feb-14 10:00N 37°54' W 122°24'1 2.4
2018-Feb-14 09:28N 37°54' W 122°22'0 0.0
2018-Feb-14 08:58N 37°54' W 122°22'0 0.0
2018-Feb-14 08:28N 37°54' W 122°22'0 0.0
2018-Feb-14 07:58N 37°54' W 122°22'0 0.0
2018-Feb-14 07:28N 37°54' W 122°22'0 0.0
2018-Feb-14 06:58N 37°54' W 122°22'0 0.0
2018-Feb-14 06:25N 37°54' W 122°22'0 0.0
2018-Feb-14 05:58N 37°54' W 122°22'2 3.5
2018-Feb-14 05:30N 37°55' W 122°24'1 1.4
2018-Feb-14 04:59N 37°55' W 122°25'0 0.0
2018-Feb-14 04:29N 37°55' W 122°25'0 0.0
2018-Feb-14 03:53N 37°55' W 122°25'0 0.0
2018-Feb-14 03:29N 37°55' W 122°25'0 0.0
2018-Feb-14 02:59N 37°55' W 122°25'0 0.0
2018-Feb-14 02:29N 37°55' W 122°25'0 0.0
2018-Feb-14 01:56N 37°55' W 122°25'0 0.0
2018-Feb-14 01:29N 37°55' W 122°25'0 0.0
2018-Feb-14 00:59N 37°55' W 122°25'0 0.0
2018-Feb-14 00:29N 37°55' W 122°25'0 0.0
2018-Feb-13 23:59N 37°55' W 122°25'0 0.0
2018-Feb-13 23:29N 37°55' W 122°25'0 0.0
2018-Feb-13 22:59N 37°55' W 122°25'0 0.0
2018-Feb-13 22:29N 37°55' W 122°25'0 0.0
2018-Feb-13 21:59N 37°55' W 122°25'0 0.0
2018-Feb-13 21:29N 37°55' W 122°25'0 0.0
2018-Feb-13 20:59N 37°55' W 122°25'0 0.0
2018-Feb-13 20:29N 37°55' W 122°25'0 0.0
2018-Feb-13 19:59N 37°55' W 122°25'0 0.0
2018-Feb-13 19:29N 37°55' W 122°25'0 0.0
2018-Feb-13 18:59N 37°55' W 122°25'0 0.0
2018-Feb-13 18:29N 37°55' W 122°25'0 0.0
2018-Feb-13 17:59N 37°55' W 122°25'0 0.0
2018-Feb-13 17:29N 37°55' W 122°25'0 0.0
2018-Feb-13 16:59N 37°55' W 122°25'0 0.0
2018-Feb-13 16:29N 37°55' W 122°25'0 0.0
2018-Feb-13 15:59N 37°55' W 122°25'0 0.0
2018-Feb-13 15:29N 37°55' W 122°25'0 0.0
2018-Feb-13 14:59N 37°55' W 122°25'0 0.0
2018-Feb-13 14:26N 37°55' W 122°25'0 0.0
2018-Feb-13 13:56N 37°55' W 122°25'0 0.0
2018-Feb-13 13:29N 37°55' W 122°25'0 0.0
2018-Feb-13 12:53N 37°55' W 122°25'0 1.0
2018-Feb-13 12:30N 37°55' W 122°25'2 3.9
2018-Feb-13 12:00N 37°54' W 122°22'0 0.0
2018-Feb-13 11:28N 37°54' W 122°22'0 0.0
2018-Feb-13 10:58N 37°54' W 122°22'0 0.0
2018-Feb-13 10:28N 37°54' W 122°22'0 0.0
2018-Feb-13 09:58N 37°54' W 122°22'0 0.0
2018-Feb-13 09:28N 37°54' W 122°22'0 0.0
2018-Feb-13 08:55N 37°54' W 122°22'0 0.0
2018-Feb-13 08:28N 37°54' W 122°22'0 0.0
2018-Feb-13 07:55N 37°54' W 122°22'0 0.0
2018-Feb-13 07:28N 37°54' W 122°22'0 0.0
2018-Feb-13 06:58N 37°54' W 122°22'0 0.0
2018-Feb-13 06:28N 37°54' W 122°22'0 0.0
2018-Feb-13 05:58N 37°54' W 122°22'0 0.0
2018-Feb-13 05:28N 37°54' W 122°22'0 0.0
2018-Feb-13 05:00N 37°54' W 122°22'2 3.4
2018-Feb-13 04:30N 37°55' W 122°24'1 1.5
2018-Feb-13 04:00N 37°55' W 122°25'1 1.8
2018-Feb-13 03:30N 37°56' W 122°25'0 0.4
2018-Feb-13 03:00N 37°55' W 122°25'0 0.5
2018-Feb-13 02:29N 37°55' W 122°25'0 0.0
2018-Feb-13 01:59N 37°55' W 122°25'0 0.0
2018-Feb-13 01:29N 37°55' W 122°25'0 0.0
2018-Feb-13 00:59N 37°55' W 122°25'0 0.0
2018-Feb-13 00:29N 37°55' W 122°25'0 0.0
2018-Feb-12 23:56N 37°55' W 122°25'0 0.0
2018-Feb-12 23:26N 37°55' W 122°25'0 0.0
2018-Feb-12 22:56N 37°55' W 122°25'0 0.0
2018-Feb-12 22:29N 37°55' W 122°25'0 0.0
2018-Feb-12 21:59N 37°55' W 122°25'0 0.0
2018-Feb-12 21:29N 37°55' W 122°25'0 0.0
2018-Feb-12 20:59N 37°55' W 122°25'0 0.0
2018-Feb-12 20:29N 37°55' W 122°25'0 0.0
2018-Feb-12 19:59N 37°55' W 122°25'0 0.0
2018-Feb-12 19:29N 37°55' W 122°25'0 0.0
2018-Feb-12 18:53N 37°55' W 122°25'0 0.0
2018-Feb-12 18:29N 37°55' W 122°25'0 0.0
2018-Feb-12 17:59N 37°55' W 122°25'0 0.0
2018-Feb-12 17:26N 37°55' W 122°25'0 0.0
2018-Feb-12 16:59N 37°55' W 122°25'0 0.0
2018-Feb-12 16:29N 37°55' W 122°25'0 0.0
2018-Feb-12 15:59N 37°55' W 122°25'0 0.0
2018-Feb-12 15:17N 37°55' W 122°25'0 0.0
2018-Feb-12 14:59N 37°55' W 122°25'0 0.0
2018-Feb-12 14:29N 37°55' W 122°25'0 0.0
2018-Feb-12 13:59N 37°55' W 122°25'0 0.0
2018-Feb-12 13:29N 37°55' W 122°25'0 0.0
2018-Feb-12 12:59N 37°55' W 122°25'0 0.0
2018-Feb-12 12:29N 37°55' W 122°25'0 0.0
2018-Feb-12 11:59N 37°55' W 122°25'0 0.0
2018-Feb-12 11:29N 37°55' W 122°25'0 0.0
2018-Feb-12 10:59N 37°55' W 122°25'0 0.0
2018-Feb-12 10:29N 37°55' W 122°25'0 0.0
2018-Feb-12 09:59N 37°55' W 122°25'0 0.0
2018-Feb-12 09:29N 37°55' W 122°25'0 0.0
2018-Feb-12 08:56N 37°55' W 122°25'0 0.0
2018-Feb-12 08:29N 37°55' W 122°25'0 0.0
2018-Feb-12 07:59N 37°55' W 122°25'0 0.0
2018-Feb-12 07:23N 37°55' W 122°25'0 0.0
2018-Feb-12 06:59N 37°55' W 122°25'0 0.6
2018-Feb-12 06:31N 37°55' W 122°25'0 0.6
2018-Feb-12 06:00N 37°55' W 122°25'0 0.3
2018-Feb-12 05:30N 37°55' W 122°25'0 0.0
2018-Feb-12 05:00N 37°55' W 122°25'0 0.0
2018-Feb-12 04:26N 37°55' W 122°25'0 1.0
2018-Feb-12 04:00N 37°56' W 122°25'0 0.0
2018-Feb-12 03:30N 37°56' W 122°25'1 1.3
2018-Feb-12 03:00N 37°55' W 122°25'3 7.0
2018-Feb-12 02:30N 37°52' W 122°25'4 8.0
2018-Feb-12 02:00N 37°49' W 122°29'4 7.4
2018-Feb-12 01:30N 37°52' W 122°26'3 5.6
2018-Feb-12 00:55N 37°55' W 122°25'0 0.0
2018-Feb-12 00:28N 37°55' W 122°25'0 0.0
2018-Feb-11 23:58N 37°55' W 122°25'0 0.0
2018-Feb-11 23:28N 37°55' W 122°25'0 0.0
2018-Feb-11 22:58N 37°55' W 122°25'0 0.0
2018-Feb-11 22:28N 37°55' W 122°25'0 0.0
2018-Feb-11 21:58N 37°55' W 122°25'0 0.0
2018-Feb-11 21:28N 37°55' W 122°25'0 0.0
2018-Feb-11 20:49N 37°55' W 122°25'0 0.0
2018-Feb-11 20:28N 37°55' W 122°25'0 0.0
2018-Feb-11 19:49N 37°55' W 122°25'0 0.0
2018-Feb-11 19:28N 37°55' W 122°25'0 0.0
2018-Feb-11 18:43N 37°55' W 122°25'0 0.0
2018-Feb-11 18:28N 37°55' W 122°25'0 0.0
2018-Feb-11 17:58N 37°55' W 122°25'0 0.0
2018-Feb-11 17:26N 37°55' W 122°25'0 0.7
2018-Feb-11 17:00N 37°55' W 122°25'2 4.8
2018-Feb-11 16:29N 37°55' W 122°22'1 1.3
2018-Feb-11 16:00N 37°55' W 122°22'0 0.7
2018-Feb-11 15:31N 37°55' W 122°22'1 0.9
2018-Feb-11 14:52N 37°54' W 122°22'0 0.0
2018-Feb-11 14:22N 37°54' W 122°22'0 0.0
2018-Feb-11 13:49N 37°54' W 122°22'0 0.0
2018-Feb-11 13:19N 37°54' W 122°22'0 0.0
2018-Feb-11 12:52N 37°54' W 122°22'0 0.0
2018-Feb-11 12:28N 37°54' W 122°22'0 0.0
2018-Feb-11 11:58N 37°54' W 122°22'0 0.0
2018-Feb-11 11:28N 37°54' W 122°22'0 0.0
2018-Feb-11 10:34N 37°54' W 122°22'0 0.1
2018-Feb-11 10:28N 37°54' W 122°22'0 0.0
2018-Feb-11 09:58N 37°54' W 122°22'0 0.0
2018-Feb-11 09:28N 37°54' W 122°22'0 0.0
2018-Feb-11 08:58N 37°54' W 122°22'0 0.0
2018-Feb-11 08:28N 37°54' W 122°22'1 2.2
2018-Feb-11 08:00N 37°54' W 122°24'1 2.5
2018-Feb-11 07:30N 37°55' W 122°25'0 0.0
2018-Feb-11 06:59N 37°55' W 122°25'0 0.0
2018-Feb-11 06:29N 37°55' W 122°25'0 0.1
2018-Feb-11 06:00N 37°55' W 122°25'1 2.1
2018-Feb-11 05:30N 37°54' W 122°25'0 0.7
2018-Feb-11 05:00N 37°54' W 122°25'2 4.0
2018-Feb-11 04:30N 37°54' W 122°22'0 0.0
2018-Feb-11 03:55N 37°54' W 122°22'0 0.0
2018-Feb-11 03:28N 37°54' W 122°22'0 0.0
2018-Feb-11 02:55N 37°54' W 122°22'0 0.0
2018-Feb-11 02:28N 37°54' W 122°22'0 0.0
2018-Feb-11 01:58N 37°54' W 122°22'0 0.0
2018-Feb-11 01:28N 37°54' W 122°22'0 0.0
2018-Feb-11 00:52N 37°54' W 122°22'0 0.0
2018-Feb-11 00:28N 37°54' W 122°22'0 0.0
2018-Feb-10 23:58N 37°54' W 122°22'0 0.0
2018-Feb-10 23:22N 37°54' W 122°22'0 0.0
2018-Feb-10 22:58N 37°54' W 122°22'0 0.0
2018-Feb-10 22:25N 37°54' W 122°22'0 0.0
2018-Feb-10 21:58N 37°54' W 122°22'0 0.0
2018-Feb-10 21:28N 37°54' W 122°22'0 0.0
2018-Feb-10 20:58N 37°54' W 122°22'0 0.0
2018-Feb-10 20:28N 37°54' W 122°22'0 0.0
2018-Feb-10 19:58N 37°54' W 122°22'0 0.0
2018-Feb-10 19:19N 37°54' W 122°22'0 0.0
2018-Feb-10 18:52N 37°54' W 122°22'0 0.0
2018-Feb-10 18:28N 37°54' W 122°22'0 0.0
2018-Feb-10 17:52N 37°54' W 122°22'0 0.0
2018-Feb-10 17:28N 37°54' W 122°22'0 0.0
2018-Feb-10 16:55N 37°54' W 122°22'0 0.0
2018-Feb-10 16:16N 37°54' W 122°22'0 0.0
2018-Feb-10 15:58N 37°54' W 122°22'0 0.0
2018-Feb-10 15:19N 37°54' W 122°22'0 0.0
2018-Feb-10 14:49N 37°54' W 122°22'0 0.0
2018-Feb-10 14:28N 37°54' W 122°22'0 0.0
2018-Feb-10 13:58N 37°54' W 122°22'0 0.0
2018-Feb-10 13:28N 37°54' W 122°22'0 0.0
2018-Feb-10 12:46N 37°54' W 122°22'0 0.0
2018-Feb-10 12:25N 37°54' W 122°22'0 0.0
2018-Feb-10 11:58N 37°54' W 122°22'0 0.0
2018-Feb-10 11:25N 37°54' W 122°22'0 0.0
2018-Feb-10 10:58N 37°54' W 122°22'0 0.0
2018-Feb-10 10:28N 37°54' W 122°22'0 0.0
2018-Feb-10 09:58N 37°54' W 122°22'0 0.0
2018-Feb-10 09:28N 37°54' W 122°22'0 0.0
2018-Feb-10 08:58N 37°54' W 122°22'0 0.0
2018-Feb-10 08:19N 37°54' W 122°22'0 0.0
2018-Feb-10 07:55N 37°54' W 122°22'0 0.0
2018-Feb-10 07:25N 37°54' W 122°22'0 0.0
2018-Feb-10 06:55N 37°54' W 122°22'0 0.0
2018-Feb-10 06:28N 37°54' W 122°22'0 0.0
2018-Feb-10 05:58N 37°54' W 122°22'0 0.0
2018-Feb-10 05:28N 37°54' W 122°22'0 0.0
2018-Feb-10 04:58N 37°54' W 122°22'0 0.0
2018-Feb-10 04:28N 37°54' W 122°22'0 0.0
2018-Feb-10 03:49N 37°54' W 122°22'  
Track history (hours):
 
Tides and Currents Weather Stations Pressure Air Temp Water Temp Dewpoint Dewpoint Depression Visibility Wind Speed Wind Dir Waves Ship Positions

Keegan Foss

Owner: FOSS MARITIME CO, SEATTLE, WA. More information available from US FCC via Universal Licensing System and Coast Guard Vessel Documentation Center.

Last reported at 2018-Feb-20 03:31 UTC. Time now 2018-Feb-20 03:45 UTC.
Position N 37°54' W 122°22'.

Length 31 m; draft 3.6 m.

Type: Tug. MMSI: 366979330.

Date/timePositionNaut miles runAvg speedWind from/ knotsBaromVisibWave heightAir tempDewpointWater temp
2018-Feb-20 03:31N 37°54' W 122°22'0 0.1
2018-Feb-20 03:01N 37°54' W 122°22'1 1.6
2018-Feb-20 02:30N 37°55' W 122°22'1 1.6
2018-Feb-20 01:58N 37°54' W 122°22'0 0.1
2018-Feb-20 01:28N 37°54' W 122°22'0 0.0
2018-Feb-20 00:58N 37°54' W 122°22'0 0.0
2018-Feb-20 00:28N 37°54' W 122°22'1 1.1
2018-Feb-20 00:00N 37°54' W 122°23'1 3.0
2018-Feb-19 23:30N 37°55' W 122°24'0 0.2
2018-Feb-19 22:58N 37°55' W 122°25'0 0.0
2018-Feb-19 22:28N 37°55' W 122°25'0 0.0
2018-Feb-19 21:58N 37°55' W 122°25'0 0.0
2018-Feb-19 21:22N 37°55' W 122°25'0 0.0
2018-Feb-19 20:58N 37°55' W 122°25'0 0.0
2018-Feb-19 20:28N 37°55' W 122°25'0 0.0
2018-Feb-19 19:58N 37°55' W 122°25'0 0.0
2018-Feb-19 19:28N 37°55' W 122°25'0 0.0
2018-Feb-19 18:58N 37°55' W 122°25'0 0.0
2018-Feb-19 18:28N 37°55' W 122°25'0 0.0
2018-Feb-19 17:58N 37°55' W 122°25'0 0.0
2018-Feb-19 17:28N 37°55' W 122°25'0 0.0
2018-Feb-19 16:58N 37°55' W 122°25'0 0.0
2018-Feb-19 16:28N 37°55' W 122°25'0 0.0
2018-Feb-19 15:58N 37°55' W 122°25'0 0.0
2018-Feb-19 15:28N 37°55' W 122°25'0 0.0
2018-Feb-19 14:58N 37°55' W 122°25'0 0.0
2018-Feb-19 14:28N 37°55' W 122°25'0 0.0
2018-Feb-19 13:58N 37°55' W 122°25'0 0.0
2018-Feb-19 13:28N 37°55' W 122°25'0 0.0
2018-Feb-19 13:01N 37°55' W 122°25'0 0.7
2018-Feb-19 12:28N 37°56' W 122°25'0 0.2
2018-Feb-19 11:55N 37°55' W 122°25'2 4.4
2018-Feb-19 11:30N 37°54' W 122°25'3 6.3
2018-Feb-19 11:01N 37°51' W 122°25'3 5.1
2018-Feb-19 10:30N 37°49' W 122°28'4 8.1
2018-Feb-19 10:00N 37°53' W 122°26'3 5.5
2018-Feb-19 09:30N 37°55' W 122°25'0 0.0
2018-Feb-19 09:00N 37°55' W 122°25'0 0.0
2018-Feb-19 08:30N 37°55' W 122°25'0 0.0
2018-Feb-19 08:00N 37°55' W 122°25'2 3.8
2018-Feb-19 07:28N 37°54' W 122°22'0 0.0
2018-Feb-19 06:58N 37°54' W 122°22'0 0.0
2018-Feb-19 06:28N 37°54' W 122°22'0 0.0
2018-Feb-19 05:58N 37°54' W 122°22'0 0.0
2018-Feb-19 05:28N 37°54' W 122°22'0 0.0
2018-Feb-19 04:58N 37°54' W 122°22'0 0.0
2018-Feb-19 04:28N 37°54' W 122°22'0 0.0
2018-Feb-19 03:55N 37°54' W 122°22'0 0.0
2018-Feb-19 03:28N 37°54' W 122°22'0 0.0
2018-Feb-19 02:55N 37°54' W 122°22'0 0.0
2018-Feb-19 02:28N 37°54' W 122°22'0 0.0
2018-Feb-19 01:58N 37°54' W 122°22'0 0.0
2018-Feb-19 01:28N 37°54' W 122°22'0 0.0
2018-Feb-19 00:58N 37°54' W 122°22'0 0.0
2018-Feb-19 00:28N 37°54' W 122°22'0 0.0
2018-Feb-18 23:58N 37°54' W 122°22'0 0.0
2018-Feb-18 23:28N 37°54' W 122°22'0 0.0
2018-Feb-18 22:58N 37°54' W 122°22'0 0.0
2018-Feb-18 22:28N 37°54' W 122°22'0 0.0
2018-Feb-18 21:55N 37°54' W 122°22'0 0.0
2018-Feb-18 21:28N 37°54' W 122°22'0 0.0
2018-Feb-18 20:58N 37°54' W 122°22'0 0.0
2018-Feb-18 20:22N 37°54' W 122°22'0 0.0
2018-Feb-18 19:55N 37°54' W 122°22'0 0.0
2018-Feb-18 19:28N 37°54' W 122°22'0 0.0
2018-Feb-18 18:58N 37°54' W 122°22'0 0.0
2018-Feb-18 18:28N 37°54' W 122°22'0 0.0
2018-Feb-18 17:58N 37°54' W 122°22'0 0.0
2018-Feb-18 17:28N 37°54' W 122°22'0 0.0
2018-Feb-18 16:58N 37°54' W 122°22'0 0.0
2018-Feb-18 16:28N 37°54' W 122°22'0 0.0
2018-Feb-18 15:55N 37°54' W 122°22'0 0.0
2018-Feb-18 15:28N 37°54' W 122°22'0 0.0
2018-Feb-18 14:58N 37°54' W 122°22'0 0.0
2018-Feb-18 14:28N 37°54' W 122°22'0 0.0
2018-Feb-18 13:58N 37°54' W 122°22'0 0.0
2018-Feb-18 13:28N 37°54' W 122°22'0 0.0
2018-Feb-18 12:58N 37°54' W 122°22'0 0.0
2018-Feb-18 12:28N 37°54' W 122°22'0 0.0
2018-Feb-18 11:58N 37°54' W 122°22'0 0.0
2018-Feb-18 11:28N 37°54' W 122°22'0 0.0
2018-Feb-18 10:58N 37°54' W 122°22'0 0.0
2018-Feb-18 10:28N 37°54' W 122°22'0 0.0
2018-Feb-18 09:58N 37°54' W 122°22'0 0.0
2018-Feb-18 09:28N 37°54' W 122°22'0 0.0
2018-Feb-18 08:58N 37°54' W 122°22'0 0.0
2018-Feb-18 08:28N 37°54' W 122°22'0 0.0
2018-Feb-18 07:58N 37°54' W 122°22'0 0.0
2018-Feb-18 07:28N 37°54' W 122°22'0 0.0
2018-Feb-18 06:58N 37°54' W 122°22'0 0.0
2018-Feb-18 06:28N 37°54' W 122°22'0 0.0
2018-Feb-18 05:58N 37°54' W 122°22'0 0.0
2018-Feb-18 05:28N 37°54' W 122°22'0 0.0
2018-Feb-18 04:58N 37°54' W 122°22'0 0.0
2018-Feb-18 04:28N 37°54' W 122°22'0 0.0
2018-Feb-18 03:58N 37°54' W 122°22'0 0.0
2018-Feb-18 03:28N 37°54' W 122°22'0 0.0
2018-Feb-18 02:58N 37°54' W 122°22'0 0.0
2018-Feb-18 02:28N 37°54' W 122°22'0 0.0
2018-Feb-18 01:58N 37°54' W 122°22'0 0.0
2018-Feb-18 01:28N 37°54' W 122°22'0 0.0
2018-Feb-18 00:55N 37°54' W 122°22'0 0.0
2018-Feb-18 00:28N 37°54' W 122°22'0 0.0
2018-Feb-17 23:58N 37°54' W 122°22'0 0.0
2018-Feb-17 23:28N 37°54' W 122°22'0 0.0
2018-Feb-17 22:58N 37°54' W 122°22'0 0.0
2018-Feb-17 22:28N 37°54' W 122°22'0 0.0
2018-Feb-17 21:58N 37°54' W 122°22'0 0.0
2018-Feb-17 21:28N 37°54' W 122°22'0 0.0
2018-Feb-17 20:58N 37°54' W 122°22'0 0.0
2018-Feb-17 20:28N 37°54' W 122°22'0 0.0
2018-Feb-17 19:58N 37°54' W 122°22'1 2.8
2018-Feb-17 19:30N 37°54' W 122°24'1 1.9
2018-Feb-17 18:59N 37°55' W 122°25'0 0.0
2018-Feb-17 18:30N 37°55' W 122°25'0 0.0
2018-Feb-17 17:56N 37°55' W 122°25'0 0.0
2018-Feb-17 17:29N 37°55' W 122°25'0 0.0
2018-Feb-17 16:56N 37°55' W 122°25'0 0.0
2018-Feb-17 16:29N 37°55' W 122°25'0 0.0
2018-Feb-17 15:59N 37°55' W 122°25'0 0.0
2018-Feb-17 15:29N 37°55' W 122°25'0 0.0
2018-Feb-17 14:57N 37°55' W 122°25'0 0.0
2018-Feb-17 14:29N 37°55' W 122°25'0 0.0
2018-Feb-17 13:59N 37°55' W 122°25'0 0.0
2018-Feb-17 13:29N 37°55' W 122°25'0 0.0
2018-Feb-17 12:59N 37°55' W 122°25'0 0.0
2018-Feb-17 12:29N 37°55' W 122°25'0 0.0
2018-Feb-17 11:59N 37°55' W 122°25'0 0.0
2018-Feb-17 11:29N 37°55' W 122°25'1 1.2
2018-Feb-17 11:00N 37°55' W 122°25'0 0.8
2018-Feb-17 10:31N 37°55' W 122°25'1 1.2
2018-Feb-17 09:58N 37°56' W 122°25'2 3.7
2018-Feb-17 09:30N 37°54' W 122°23'1 1.6
2018-Feb-17 08:59N 37°54' W 122°22'0 0.0
2018-Feb-17 08:29N 37°54' W 122°22'0 0.0
2018-Feb-17 07:59N 37°54' W 122°22'0 0.0
2018-Feb-17 07:29N 37°54' W 122°22'0 0.0
2018-Feb-17 06:59N 37°54' W 122°22'0 0.0
2018-Feb-17 06:29N 37°54' W 122°22'0 0.0
2018-Feb-17 05:59N 37°54' W 122°22'0 0.0
2018-Feb-17 05:29N 37°54' W 122°22'2 4.0
2018-Feb-17 05:00N 37°55' W 122°24'0 0.2
2018-Feb-17 04:30N 37°55' W 122°25'0 0.0
2018-Feb-17 04:00N 37°55' W 122°25'2 3.6
2018-Feb-17 03:30N 37°54' W 122°25'2 3.7
2018-Feb-17 03:00N 37°52' W 122°25'4 7.2
2018-Feb-17 02:30N 37°55' W 122°25'0 0.2
2018-Feb-17 02:00N 37°55' W 122°25'0 0.3
2018-Feb-17 01:30N 37°55' W 122°25'0 0.0
2018-Feb-17 01:00N 37°55' W 122°25'0 0.0
2018-Feb-17 00:30N 37°55' W 122°25'0 0.0
2018-Feb-17 00:00N 37°55' W 122°25'1 1.8
2018-Feb-16 23:31N 37°54' W 122°24'2 3.4
2018-Feb-16 22:58N 37°55' W 122°22'1 2.0
2018-Feb-16 22:30N 37°54' W 122°22'0 0.3
2018-Feb-16 21:58N 37°54' W 122°22'0 0.1
2018-Feb-16 21:28N 37°54' W 122°22'0 0.0
2018-Feb-16 20:58N 37°54' W 122°22'0 0.0
2018-Feb-16 20:28N 37°54' W 122°22'0 0.0
2018-Feb-16 19:58N 37°54' W 122°22'0 0.0
2018-Feb-16 19:28N 37°54' W 122°22'0 0.0
2018-Feb-16 18:55N 37°54' W 122°22'0 0.0
2018-Feb-16 18:28N 37°54' W 122°22'0 0.0
2018-Feb-16 17:58N 37°54' W 122°22'0 0.0
2018-Feb-16 17:28N 37°54' W 122°22'0 0.0
2018-Feb-16 16:58N 37°54' W 122°22'0 0.0
2018-Feb-16 16:22N 37°54' W 122°22'0 0.0
2018-Feb-16 15:58N 37°54' W 122°22'0 0.0
2018-Feb-16 15:28N 37°54' W 122°22'0 0.0
2018-Feb-16 14:58N 37°54' W 122°22'0 0.0
2018-Feb-16 14:28N 37°54' W 122°22'0 0.0
2018-Feb-16 13:58N 37°54' W 122°22'0 0.0
2018-Feb-16 13:28N 37°54' W 122°22'0 0.0
2018-Feb-16 12:58N 37°54' W 122°22'0 0.0
2018-Feb-16 12:28N 37°54' W 122°22'0 0.0
2018-Feb-16 11:58N 37°54' W 122°22'0 0.0
2018-Feb-16 11:28N 37°54' W 122°22'0 0.0
2018-Feb-16 11:01N 37°54' W 122°22'1 1.4
2018-Feb-16 10:26N 37°55' W 122°22'1 2.1
2018-Feb-16 10:00N 37°54' W 122°22'0 0.4
2018-Feb-16 09:24N 37°54' W 122°22'2 5.6
2018-Feb-16 08:58N 37°56' W 122°25'0 0.0
2018-Feb-16 08:25N 37°56' W 122°25'0 1.1
2018-Feb-16 08:00N 37°55' W 122°25'4 7.5
2018-Feb-16 07:30N 37°52' W 122°25'4 7.3
2018-Feb-16 07:00N 37°49' W 122°28'4 8.0
2018-Feb-16 06:30N 37°53' W 122°26'3 5.0
2018-Feb-16 05:58N 37°55' W 122°25'0 0.8
2018-Feb-16 05:30N 37°56' W 122°25'0 0.4
2018-Feb-16 05:01N 37°56' W 122°25'1 1.1
2018-Feb-16 04:30N 37°55' W 122°25'0 0.1
2018-Feb-16 04:00N 37°55' W 122°25'0 0.0
2018-Feb-16 03:29N 37°55' W 122°25'0 0.0
2018-Feb-16 03:00N 37°55' W 122°25'0 0.0
2018-Feb-16 02:26N 37°55' W 122°25'0 0.0
2018-Feb-16 02:00N 37°55' W 122°25'0 0.0
2018-Feb-16 01:30N 37°55' W 122°25'0 0.0
2018-Feb-16 01:00N 37°55' W 122°25'0 0.0
2018-Feb-16 00:30N 37°55' W 122°25'0 0.0
2018-Feb-15 23:56N 37°55' W 122°25'0 0.0
2018-Feb-15 23:30N 37°55' W 122°25'2 4.0
2018-Feb-15 23:00N 37°54' W 122°22'0 0.0
2018-Feb-15 22:30N 37°54' W 122°22'0 0.0
2018-Feb-15 22:00N 37°54' W 122°22'0 0.0
2018-Feb-15 21:27N 37°54' W 122°22'0 0.0
2018-Feb-15 21:00N 37°54' W 122°22'0 0.0
2018-Feb-15 20:30N 37°54' W 122°22'0 0.0
2018-Feb-15 19:57N 37°54' W 122°22'0 0.0
2018-Feb-15 19:30N 37°54' W 122°22'0 0.0
2018-Feb-15 19:00N 37°54' W 122°22'0 0.0
2018-Feb-15 18:30N 37°54' W 122°22'0 0.0
2018-Feb-15 18:00N 37°54' W 122°22'0 0.0
2018-Feb-15 17:30N 37°54' W 122°22'0 0.0
2018-Feb-15 17:00N 37°54' W 122°22'0 0.0
2018-Feb-15 16:30N 37°54' W 122°22'0 0.0
2018-Feb-15 16:00N 37°54' W 122°22'0 0.0
2018-Feb-15 15:30N 37°54' W 122°22'0 0.0
2018-Feb-15 15:00N 37°54' W 122°22'0 0.0
2018-Feb-15 14:27N 37°54' W 122°22'0 0.0
2018-Feb-15 14:00N 37°54' W 122°22'0 0.0
2018-Feb-15 13:30N 37°54' W 122°22'0 0.0
2018-Feb-15 13:00N 37°54' W 122°22'0 0.0
2018-Feb-15 12:30N 37°54' W 122°22'0 0.0
2018-Feb-15 12:00N 37°54' W 122°22'0 0.0
2018-Feb-15 11:30N 37°54' W 122°22'0 0.0
2018-Feb-15 11:00N 37°54' W 122°22'0 0.0
2018-Feb-15 10:30N 37°54' W 122°22'0 0.0
2018-Feb-15 10:00N 37°54' W 122°22'0 0.0
2018-Feb-15 09:30N 37°54' W 122°22'0 0.0
2018-Feb-15 09:00N 37°54' W 122°22'1 2.6
2018-Feb-15 08:30N 37°54' W 122°24'1 1.8
2018-Feb-15 07:58N 37°55' W 122°25'0 0.0
2018-Feb-15 07:28N 37°55' W 122°25'0 0.0
2018-Feb-15 06:58N 37°55' W 122°25'0 0.0
2018-Feb-15 06:10N 37°55' W 122°25'0 0.0
2018-Feb-15 05:43N 37°55' W 122°25'0 0.0
2018-Feb-15 05:22N 37°55' W 122°25'0 0.0
2018-Feb-15 04:55N 37°55' W 122°25'0 0.0
2018-Feb-15 04:28N 37°55' W 122°25'0 0.0
2018-Feb-15 03:55N 37°55' W 122°25'0 0.0
2018-Feb-15 03:25N 37°55' W 122°25'0 0.0
2018-Feb-15 02:58N 37°55' W 122°25'0 0.0
2018-Feb-15 02:22N 37°55' W 122°25'0 0.0
2018-Feb-15 01:55N 37°55' W 122°25'0 0.0
2018-Feb-15 01:28N 37°55' W 122°25'0 0.0
2018-Feb-15 00:55N 37°55' W 122°25'0 0.0
2018-Feb-15 00:28N 37°55' W 122°25'0 0.0
2018-Feb-14 23:46N 37°55' W 122°25'0 0.0
2018-Feb-14 23:25N 37°55' W 122°25'0 0.0
2018-Feb-14 22:58N 37°55' W 122°25'0 0.0
2018-Feb-14 22:28N 37°55' W 122°25'0 0.0
2018-Feb-14 21:58N 37°55' W 122°25'0 0.1
2018-Feb-14 21:25N 37°55' W 122°24'0 0.1
2018-Feb-14 20:55N 37°55' W 122°25'0 0.0
2018-Feb-14 20:28N 37°55' W 122°25'0 0.0
2018-Feb-14 19:55N 37°55' W 122°25'0 0.0
2018-Feb-14 19:25N 37°55' W 122°25'0 0.0
2018-Feb-14 18:58N 37°55' W 122°25'0 0.0
2018-Feb-14 18:25N 37°55' W 122°25'0 0.0
2018-Feb-14 17:58N 37°55' W 122°25'0 0.0
2018-Feb-14 17:28N 37°55' W 122°25'0 0.0
2018-Feb-14 16:55N 37°55' W 122°25'0 0.0
2018-Feb-14 16:28N 37°55' W 122°25'0 0.0
2018-Feb-14 15:58N 37°55' W 122°25'0 0.0
2018-Feb-14 15:28N 37°55' W 122°25'0 0.0
2018-Feb-14 14:58N 37°55' W 122°25'0 0.0
2018-Feb-14 14:28N 37°55' W 122°25'0 0.0
2018-Feb-14 13:58N 37°55' W 122°25'0 0.0
2018-Feb-14 13:28N 37°55' W 122°25'0 0.0
2018-Feb-14 12:55N 37°55' W 122°25'0 0.0
2018-Feb-14 12:28N 37°55' W 122°25'0 0.0
2018-Feb-14 11:58N 37°55' W 122°25'0 0.0
2018-Feb-14 11:28N 37°55' W 122°25'0 0.0
2018-Feb-14 10:58N 37°55' W 122°25'0 0.0
2018-Feb-14 10:28N 37°55' W 122°25'1 2.2
2018-Feb-14 10:00N 37°54' W 122°24'1 2.4
2018-Feb-14 09:28N 37°54' W 122°22'0 0.0
2018-Feb-14 08:58N 37°54' W 122°22'0 0.0
2018-Feb-14 08:28N 37°54' W 122°22'0 0.0
2018-Feb-14 07:58N 37°54' W 122°22'0 0.0
2018-Feb-14 07:28N 37°54' W 122°22'0 0.0
2018-Feb-14 06:58N 37°54' W 122°22'0 0.0
2018-Feb-14 06:25N 37°54' W 122°22'0 0.0
2018-Feb-14 05:58N 37°54' W 122°22'2 3.5
2018-Feb-14 05:30N 37°55' W 122°24'1 1.4
2018-Feb-14 04:59N 37°55' W 122°25'0 0.0
2018-Feb-14 04:29N 37°55' W 122°25'0 0.0
2018-Feb-14 03:53N 37°55' W 122°25'0 0.0
2018-Feb-14 03:29N 37°55' W 122°25'0 0.0
2018-Feb-14 02:59N 37°55' W 122°25'0 0.0
2018-Feb-14 02:29N 37°55' W 122°25'0 0.0
2018-Feb-14 01:56N 37°55' W 122°25'0 0.0
2018-Feb-14 01:29N 37°55' W 122°25'0 0.0
2018-Feb-14 00:59N 37°55' W 122°25'0 0.0
2018-Feb-14 00:29N 37°55' W 122°25'0 0.0
2018-Feb-13 23:59N 37°55' W 122°25'0 0.0
2018-Feb-13 23:29N 37°55' W 122°25'0 0.0
2018-Feb-13 22:59N 37°55' W 122°25'0 0.0
2018-Feb-13 22:29N 37°55' W 122°25'0 0.0
2018-Feb-13 21:59N 37°55' W 122°25'0 0.0
2018-Feb-13 21:29N 37°55' W 122°25'0 0.0
2018-Feb-13 20:59N 37°55' W 122°25'0 0.0
2018-Feb-13 20:29N 37°55' W 122°25'0 0.0
2018-Feb-13 19:59N 37°55' W 122°25'0 0.0
2018-Feb-13 19:29N 37°55' W 122°25'0 0.0
2018-Feb-13 18:59N 37°55' W 122°25'0 0.0
2018-Feb-13 18:29N 37°55' W 122°25'0 0.0
2018-Feb-13 17:59N 37°55' W 122°25'0 0.0
2018-Feb-13 17:29N 37°55' W 122°25'0 0.0
2018-Feb-13 16:59N 37°55' W 122°25'0 0.0
2018-Feb-13 16:29N 37°55' W 122°25'0 0.0
2018-Feb-13 15:59N 37°55' W 122°25'0 0.0
2018-Feb-13 15:29N 37°55' W 122°25'0 0.0
2018-Feb-13 14:59N 37°55' W 122°25'0 0.0
2018-Feb-13 14:26N 37°55' W 122°25'0 0.0
2018-Feb-13 13:56N 37°55' W 122°25'0 0.0
2018-Feb-13 13:29N 37°55' W 122°25'0 0.0
2018-Feb-13 12:53N 37°55' W 122°25'0 1.0
2018-Feb-13 12:30N 37°55' W 122°25'2 3.9
2018-Feb-13 12:00N 37°54' W 122°22'0 0.0
2018-Feb-13 11:28N 37°54' W 122°22'0 0.0
2018-Feb-13 10:58N 37°54' W 122°22'0 0.0
2018-Feb-13 10:28N 37°54' W 122°22'0 0.0
2018-Feb-13 09:58N 37°54' W 122°22'0 0.0
2018-Feb-13 09:28N 37°54' W 122°22'0 0.0
2018-Feb-13 08:55N 37°54' W 122°22'0 0.0
2018-Feb-13 08:28N 37°54' W 122°22'0 0.0
2018-Feb-13 07:55N 37°54' W 122°22'0 0.0
2018-Feb-13 07:28N 37°54' W 122°22'0 0.0
2018-Feb-13 06:58N 37°54' W 122°22'0 0.0
2018-Feb-13 06:28N 37°54' W 122°22'0 0.0
2018-Feb-13 05:58N 37°54' W 122°22'0 0.0
2018-Feb-13 05:28N 37°54' W 122°22'0 0.0
2018-Feb-13 05:00N 37°54' W 122°22'2 3.4
2018-Feb-13 04:30N 37°55' W 122°24'1 1.5
2018-Feb-13 04:00N 37°55' W 122°25'1 1.8
2018-Feb-13 03:30N 37°56' W 122°25'0 0.4
2018-Feb-13 03:00N 37°55' W 122°25'0 0.5
2018-Feb-13 02:29N 37°55' W 122°25'0 0.0
2018-Feb-13 01:59N 37°55' W 122°25'0 0.0
2018-Feb-13 01:29N 37°55' W 122°25'0 0.0
2018-Feb-13 00:59N 37°55' W 122°25'0 0.0
2018-Feb-13 00:29N 37°55' W 122°25'0 0.0
2018-Feb-12 23:56N 37°55' W 122°25'0 0.0
2018-Feb-12 23:26N 37°55' W 122°25'0 0.0
2018-Feb-12 22:56N 37°55' W 122°25'0 0.0
2018-Feb-12 22:29N 37°55' W 122°25'0 0.0
2018-Feb-12 21:59N 37°55' W 122°25'0 0.0
2018-Feb-12 21:29N 37°55' W 122°25'0 0.0
2018-Feb-12 20:59N 37°55' W 122°25'0 0.0
2018-Feb-12 20:29N 37°55' W 122°25'0 0.0
2018-Feb-12 19:59N 37°55' W 122°25'0 0.0
2018-Feb-12 19:29N 37°55' W 122°25'0 0.0
2018-Feb-12 18:53N 37°55' W 122°25'0 0.0
2018-Feb-12 18:29N 37°55' W 122°25'0 0.0
2018-Feb-12 17:59N 37°55' W 122°25'0 0.0
2018-Feb-12 17:26N 37°55' W 122°25'0 0.0
2018-Feb-12 16:59N 37°55' W 122°25'0 0.0
2018-Feb-12 16:29N 37°55' W 122°25'0 0.0
2018-Feb-12 15:59N 37°55' W 122°25'0 0.0
2018-Feb-12 15:17N 37°55' W 122°25'0 0.0
2018-Feb-12 14:59N 37°55' W 122°25'0 0.0
2018-Feb-12 14:29N 37°55' W 122°25'0 0.0
2018-Feb-12 13:59N 37°55' W 122°25'0 0.0
2018-Feb-12 13:29N 37°55' W 122°25'0 0.0
2018-Feb-12 12:59N 37°55' W 122°25'0 0.0
2018-Feb-12 12:29N 37°55' W 122°25'0 0.0
2018-Feb-12 11:59N 37°55' W 122°25'0 0.0
2018-Feb-12 11:29N 37°55' W 122°25'0 0.0
2018-Feb-12 10:59N 37°55' W 122°25'0 0.0
2018-Feb-12 10:29N 37°55' W 122°25'0 0.0
2018-Feb-12 09:59N 37°55' W 122°25'0 0.0
2018-Feb-12 09:29N 37°55' W 122°25'0 0.0
2018-Feb-12 08:56N 37°55' W 122°25'0 0.0
2018-Feb-12 08:29N 37°55' W 122°25'0 0.0
2018-Feb-12 07:59N 37°55' W 122°25'0 0.0
2018-Feb-12 07:23N 37°55' W 122°25'0 0.0
2018-Feb-12 06:59N 37°55' W 122°25'0 0.6
2018-Feb-12 06:31N 37°55' W 122°25'0 0.6
2018-Feb-12 06:00N 37°55' W 122°25'0 0.3
2018-Feb-12 05:30N 37°55' W 122°25'0 0.0
2018-Feb-12 05:00N 37°55' W 122°25'0 0.0
2018-Feb-12 04:26N 37°55' W 122°25'0 1.0
2018-Feb-12 04:00N 37°56' W 122°25'0 0.0
2018-Feb-12 03:30N 37°56' W 122°25'1 1.3
2018-Feb-12 03:00N 37°55' W 122°25'3 7.0
2018-Feb-12 02:30N 37°52' W 122°25'4 8.0
2018-Feb-12 02:00N 37°49' W 122°29'4 7.4
2018-Feb-12 01:30N 37°52' W 122°26'3 5.6
2018-Feb-12 00:55N 37°55' W 122°25'0 0.0
2018-Feb-12 00:28N 37°55' W 122°25'0 0.0
2018-Feb-11 23:58N 37°55' W 122°25'0 0.0
2018-Feb-11 23:28N 37°55' W 122°25'0 0.0
2018-Feb-11 22:58N 37°55' W 122°25'0 0.0
2018-Feb-11 22:28N 37°55' W 122°25'0 0.0
2018-Feb-11 21:58N 37°55' W 122°25'0 0.0
2018-Feb-11 21:28N 37°55' W 122°25'0 0.0
2018-Feb-11 20:49N 37°55' W 122°25'0 0.0
2018-Feb-11 20:28N 37°55' W 122°25'0 0.0
2018-Feb-11 19:49N 37°55' W 122°25'0 0.0
2018-Feb-11 19:28N 37°55' W 122°25'0 0.0
2018-Feb-11 18:43N 37°55' W 122°25'0 0.0
2018-Feb-11 18:28N 37°55' W 122°25'0 0.0
2018-Feb-11 17:58N 37°55' W 122°25'0 0.0
2018-Feb-11 17:26N 37°55' W 122°25'0 0.7
2018-Feb-11 17:00N 37°55' W 122°25'2 4.8
2018-Feb-11 16:29N 37°55' W 122°22'1 1.3
2018-Feb-11 16:00N 37°55' W 122°22'0 0.7
2018-Feb-11 15:31N 37°55' W 122°22'1 0.9
2018-Feb-11 14:52N 37°54' W 122°22'0 0.0
2018-Feb-11 14:22N 37°54' W 122°22'0 0.0
2018-Feb-11 13:49N 37°54' W 122°22'0 0.0
2018-Feb-11 13:19N 37°54' W 122°22'0 0.0
2018-Feb-11 12:52N 37°54' W 122°22'0 0.0
2018-Feb-11 12:28N 37°54' W 122°22'0 0.0
2018-Feb-11 11:58N 37°54' W 122°22'0 0.0
2018-Feb-11 11:28N 37°54' W 122°22'0 0.0
2018-Feb-11 10:34N 37°54' W 122°22'0 0.1
2018-Feb-11 10:28N 37°54' W 122°22'0 0.0
2018-Feb-11 09:58N 37°54' W 122°22'0 0.0
2018-Feb-11 09:28N 37°54' W 122°22'0 0.0
2018-Feb-11 08:58N 37°54' W 122°22'0 0.0
2018-Feb-11 08:28N 37°54' W 122°22'1 2.2
2018-Feb-11 08:00N 37°54' W 122°24'1 2.5
2018-Feb-11 07:30N 37°55' W 122°25'0 0.0
2018-Feb-11 06:59N 37°55' W 122°25'0 0.0
2018-Feb-11 06:29N 37°55' W 122°25'0 0.1
2018-Feb-11 06:00N 37°55' W 122°25'1 2.1
2018-Feb-11 05:30N 37°54' W 122°25'0 0.7
2018-Feb-11 05:00N 37°54' W 122°25'2 4.0
2018-Feb-11 04:30N 37°54' W 122°22'0 0.0
2018-Feb-11 03:55N 37°54' W 122°22'0 0.0
2018-Feb-11 03:28N 37°54' W 122°22'0 0.0
2018-Feb-11 02:55N 37°54' W 122°22'0 0.0
2018-Feb-11 02:28N 37°54' W 122°22'0 0.0
2018-Feb-11 01:58N 37°54' W 122°22'0 0.0
2018-Feb-11 01:28N 37°54' W 122°22'0 0.0
2018-Feb-11 00:52N 37°54' W 122°22'0 0.0
2018-Feb-11 00:28N 37°54' W 122°22'0 0.0
2018-Feb-10 23:58N 37°54' W 122°22'0 0.0
2018-Feb-10 23:22N 37°54' W 122°22'0 0.0
2018-Feb-10 22:58N 37°54' W 122°22'0 0.0
2018-Feb-10 22:25N 37°54' W 122°22'0 0.0
2018-Feb-10 21:58N 37°54' W 122°22'0 0.0
2018-Feb-10 21:28N 37°54' W 122°22'0 0.0
2018-Feb-10 20:58N 37°54' W 122°22'0 0.0
2018-Feb-10 20:28N 37°54' W 122°22'0 0.0
2018-Feb-10 19:58N 37°54' W 122°22'0 0.0
2018-Feb-10 19:19N 37°54' W 122°22'0 0.0
2018-Feb-10 18:52N 37°54' W 122°22'0 0.0
2018-Feb-10 18:28N 37°54' W 122°22'0 0.0
2018-Feb-10 17:52N 37°54' W 122°22'0 0.0
2018-Feb-10 17:28N 37°54' W 122°22'0 0.0
2018-Feb-10 16:55N 37°54' W 122°22'0 0.0
2018-Feb-10 16:16N 37°54' W 122°22'0 0.0
2018-Feb-10 15:58N 37°54' W 122°22'0 0.0
2018-Feb-10 15:19N 37°54' W 122°22'0 0.0
2018-Feb-10 14:49N 37°54' W 122°22'0 0.0
2018-Feb-10 14:28N 37°54' W 122°22'0 0.0
2018-Feb-10 13:58N 37°54' W 122°22'0 0.0
2018-Feb-10 13:28N 37°54' W 122°22'0 0.0
2018-Feb-10 12:46N 37°54' W 122°22'0 0.0
2018-Feb-10 12:25N 37°54' W 122°22'0 0.0
2018-Feb-10 11:58N 37°54' W 122°22'0 0.0
2018-Feb-10 11:25N 37°54' W 122°22'0 0.0
2018-Feb-10 10:58N 37°54' W 122°22'0 0.0
2018-Feb-10 10:28N 37°54' W 122°22'0 0.0
2018-Feb-10 09:58N 37°54' W 122°22'0 0.0
2018-Feb-10 09:28N 37°54' W 122°22'0 0.0
2018-Feb-10 08:58N 37°54' W 122°22'0 0.0
2018-Feb-10 08:19N 37°54' W 122°22'0 0.0
2018-Feb-10 07:55N 37°54' W 122°22'0 0.0
2018-Feb-10 07:25N 37°54' W 122°22'0 0.0
2018-Feb-10 06:55N 37°54' W 122°22'0 0.0
2018-Feb-10 06:28N 37°54' W 122°22'0 0.0
2018-Feb-10 05:58N 37°54' W 122°22'0 0.0
2018-Feb-10 05:28N 37°54' W 122°22'0 0.0
2018-Feb-10 04:58N 37°54' W 122°22'0 0.0
2018-Feb-10 04:28N 37°54' W 122°22'0 0.0
2018-Feb-10 03:49N 37°54' W 122°22'  

Dump ship's entire track history